createdAt,value
2023-02-08T00:00:15.629Z,103169.09
2023-02-08T00:02:42.809Z,103170.43
2023-02-08T00:05:10.065Z,103175.96
2023-02-08T00:07:37.328Z,103175.81
2023-02-08T00:10:06.265Z,103182.75
2023-02-08T00:12:35.840Z,103182.67
2023-02-08T00:15:03.928Z,103179.64
2023-02-08T00:17:31.337Z,103179.32
2023-02-08T00:19:58.285Z,103183.98
2023-02-08T00:22:25.080Z,103180.43
2023-02-08T00:24:51.941Z,103179.95
2023-02-08T00:27:18.945Z,103177.44
2023-02-08T00:29:46.349Z,103174.54
2023-02-08T00:32:13.554Z,103179.11
2023-02-08T00:34:41.762Z,103177.42
2023-02-08T00:37:10.543Z,103186.85
2023-02-08T00:39:37.743Z,103193.27
2023-02-08T00:42:04.784Z,103196.60
2023-02-08T00:44:32.909Z,103200.77
2023-02-08T00:46:59.750Z,103204.30
2023-02-08T00:49:26.613Z,103206.57
2023-02-08T00:51:53.580Z,103202.95
2023-02-08T00:54:20.631Z,103200.48
2023-02-08T00:56:47.678Z,103200.05
2023-02-08T00:59:14.560Z,103208.23
2023-02-08T01:01:44.024Z,103206.07
2023-02-08T01:04:11.176Z,103215.55
2023-02-08T01:06:42.571Z,103220.59
2023-02-08T01:09:11.756Z,103228.23
2023-02-08T01:11:38.816Z,103227.56
2023-02-08T01:14:05.934Z,103224.35
2023-02-08T01:16:33.359Z,103224.68
2023-02-08T01:19:01.148Z,103226.54
2023-02-08T01:21:29.998Z,103230.06
2023-02-08T01:24:01.586Z,103238.91
2023-02-08T01:26:34.468Z,103241.30
2023-02-08T01:29:01.694Z,103241.95
2023-02-08T01:31:33.918Z,103242.23
2023-02-08T01:34:00.816Z,103246.89
2023-02-08T01:36:28.072Z,103248.92
2023-02-08T01:38:54.971Z,103251.16
2023-02-08T01:41:26.709Z,103254.96
2023-02-08T01:44:12.128Z,103262.39
2023-02-08T01:46:42.325Z,103263.27
2023-02-08T01:49:19.455Z,103270.13
2023-02-08T01:51:52.201Z,103279.50
2023-02-08T01:54:21.556Z,103286.17
2023-02-08T01:56:48.631Z,103286.80
2023-02-08T01:59:56.538Z,103289.38
2023-02-08T02:02:24.936Z,103290.40
2023-02-08T02:04:53.674Z,103298.98
2023-02-08T02:07:21.325Z,103297.05
2023-02-08T02:09:51.281Z,103300.52
2023-02-08T02:12:19.631Z,103304.96
2023-02-08T02:14:46.480Z,103308.10
2023-02-08T02:17:13.474Z,103311.98
2023-02-08T02:20:09.798Z,103317.30
2023-02-08T02:22:58.308Z,103320.29
2023-02-08T02:25:44.938Z,103321.05
2023-02-08T02:28:34.107Z,103323.23
2023-02-08T02:31:21.707Z,103320.48
2023-02-08T02:33:53.091Z,103326.75
2023-02-08T02:36:52.007Z,103336.30
2023-02-08T02:39:31.039Z,103340.38
2023-02-08T02:42:33.667Z,103345.39
2023-02-08T02:45:15.541Z,103340.98
2023-02-08T02:47:49.452Z,103343.27
2023-02-08T02:50:53.446Z,103342.95
2023-02-08T02:53:28.841Z,103345.58
2023-02-08T02:56:01.168Z,103338.38
2023-02-08T02:58:28.076Z,103340.94
2023-02-08T03:00:56.128Z,103343.83
2023-02-08T03:03:25.952Z,103345.98
2023-02-08T03:05:56.054Z,103347.79
2023-02-08T03:09:03.578Z,103352.39
2023-02-08T03:11:32.721Z,103352.70
2023-02-08T03:14:12.591Z,103354.56
2023-02-08T03:17:07.696Z,103351.88
2023-02-08T03:20:26.154Z,103352.91
2023-02-08T03:23:10.888Z,103353.08
2023-02-08T03:25:50.804Z,103360.12
2023-02-08T03:28:20.384Z,103358.89
2023-02-08T03:30:56.499Z,103357.23
2023-02-08T03:33:35.411Z,103359.90
2023-02-08T03:36:10.241Z,103366.45
2023-02-08T03:38:40.252Z,103368.73
2023-02-08T03:41:09.774Z,103377.94
2023-02-08T03:43:40.549Z,103380.56
2023-02-08T03:46:15.250Z,103384.59
2023-02-08T03:48:49.218Z,103389.01
2023-02-08T03:51:16.008Z,103390.67
2023-02-08T03:53:44.230Z,103392.08
2023-02-08T03:56:20.341Z,103395.30
2023-02-08T03:58:55.527Z,103396.33
2023-02-08T04:01:36.336Z,103406.63
2023-02-08T04:04:03.441Z,103411.11
2023-02-08T04:06:32.172Z,103415.60
2023-02-08T04:08:58.972Z,103415.77
2023-02-08T04:11:28.347Z,103424.31
2023-02-08T04:13:56.018Z,103422.13
2023-02-08T04:16:22.908Z,103418.65
2023-02-08T04:18:50.033Z,103425.09
2023-02-08T04:21:17.020Z,103428.20
2023-02-08T04:23:44.077Z,103428.75
2023-02-08T04:26:10.918Z,103436.17
2023-02-08T04:28:37.700Z,103450.24
2023-02-08T04:31:04.731Z,103454.27
2023-02-08T04:33:31.825Z,103455.34
2023-02-08T04:35:59.192Z,103457.06
2023-02-08T04:38:26.114Z,103458.20
2023-02-08T04:40:52.852Z,103464.70
2023-02-08T04:43:19.652Z,103464.77
2023-02-08T04:45:49.541Z,103470.71
2023-02-08T04:48:17.031Z,103470.85
2023-02-08T04:50:43.915Z,103472.52
2023-02-08T04:53:10.689Z,103478.25
2023-02-08T04:55:37.674Z,103480.98
2023-02-08T04:58:04.603Z,103480.05
2023-02-08T05:00:31.819Z,103482.96
2023-02-08T05:03:01.551Z,103478.61
2023-02-08T05:05:28.572Z,103475.52
2023-02-08T05:07:57.035Z,103477.55
2023-02-08T05:10:24.012Z,103484.15
2023-02-08T05:12:50.892Z,103485.02
2023-02-08T05:15:17.941Z,103489.34
2023-02-08T05:17:45.288Z,103491.52
2023-02-08T05:20:13.197Z,103493.06
2023-02-08T05:22:40.132Z,103500.70
2023-02-08T05:25:07.609Z,103506.92
2023-02-08T05:27:35.157Z,103501.61
2023-02-08T05:30:03.204Z,103503.73
2023-02-08T05:32:30.595Z,103501.95
2023-02-08T05:34:57.397Z,103505.92
2023-02-08T05:37:24.740Z,103506.77
2023-02-08T05:39:51.815Z,103513.40
2023-02-08T05:42:18.609Z,103517.36
2023-02-08T05:44:45.525Z,103520.86
2023-02-08T05:47:12.905Z,103525.75
2023-02-08T05:49:39.943Z,103524.99
2023-02-08T05:52:07.107Z,103530.83
2023-02-08T05:54:34.648Z,103533.58
2023-02-08T05:57:01.517Z,103540.67
2023-02-08T05:59:28.801Z,103545.47
2023-02-08T06:01:55.676Z,103551.05
2023-02-08T06:04:22.641Z,103550.85
2023-02-08T06:06:49.578Z,103551.29
2023-02-08T06:09:16.494Z,103554.56
2023-02-08T06:11:44.249Z,103553.38
2023-02-08T06:14:13.452Z,103549.55
2023-02-08T06:16:40.518Z,103547.29
2023-02-08T06:19:07.322Z,103546.52
2023-02-08T06:21:34.319Z,103544.29
2023-02-08T06:24:03.402Z,103549.58
2023-02-08T06:26:30.217Z,103549.83
2023-02-08T06:28:58.633Z,103557.25
2023-02-08T06:31:25.476Z,103560.84
2023-02-08T06:33:52.738Z,103562.16
2023-02-08T06:36:19.578Z,103561.83
2023-02-08T06:38:46.778Z,103565.02
2023-02-08T06:41:13.592Z,103567.56
2023-02-08T06:43:40.757Z,103569.79
2023-02-08T06:46:08.158Z,103567.83
2023-02-08T06:48:35.240Z,103568.00
2023-02-08T06:51:02.058Z,103566.20
2023-02-08T06:53:29.258Z,103573.48
2023-02-08T06:55:56.261Z,103576.76
2023-02-08T06:58:23.143Z,103580.70
2023-02-08T07:00:50.553Z,103582.48
2023-02-08T07:03:17.421Z,103580.36
2023-02-08T07:05:58.723Z,103579.23
2023-02-08T07:08:32.860Z,103579.02
2023-02-08T07:11:15.384Z,103574.52
2023-02-08T07:13:47.153Z,103578.18
2023-02-08T07:16:14.400Z,103574.57
2023-02-08T07:18:41.627Z,103578.30
2023-02-08T07:21:10.097Z,103583.23
2023-02-08T07:23:38.885Z,103578.07
2023-02-08T07:26:07.670Z,103579.50
2023-02-08T07:28:36.872Z,103577.08
2023-02-08T07:31:08.123Z,103572.89
2023-02-08T07:33:35.053Z,103574.08
2023-02-08T07:36:04.816Z,103579.39
2023-02-08T07:38:33.256Z,103576.13
2023-02-08T07:41:04.912Z,103581.80
2023-02-08T07:43:33.010Z,103574.90
2023-02-08T07:46:17.772Z,103574.70
2023-02-08T07:48:44.852Z,103575.58
2023-02-08T07:51:11.927Z,103575.34
2023-02-08T07:53:39.904Z,103573.10
2023-02-08T07:56:06.840Z,103574.93
2023-02-08T07:58:36.886Z,103570.82
2023-02-08T08:01:19.594Z,103571.45
2023-02-08T08:03:49.859Z,103577.40
2023-02-08T08:06:18.265Z,103576.31
2023-02-08T08:08:47.105Z,103575.56
2023-02-08T08:11:15.139Z,103578.41
2023-02-08T08:13:43.209Z,103575.96
2023-02-08T08:16:09.995Z,103579.17
2023-02-08T08:18:37.054Z,103583.59
2023-02-08T08:21:04.504Z,103584.46
2023-02-08T08:23:32.825Z,103586.31
2023-02-08T08:26:00.154Z,103585.05
2023-02-08T08:28:27.310Z,103585.07
2023-02-08T08:30:54.450Z,103586.55
2023-02-08T08:33:21.322Z,103590.90
2023-02-08T08:35:48.524Z,103590.64
2023-02-08T08:38:15.591Z,103594.58
2023-02-08T08:40:42.996Z,103590.73
2023-02-08T08:43:10.533Z,103591.76
2023-02-08T08:45:37.767Z,103587.05
2023-02-08T08:48:05.395Z,103588.47
2023-02-08T08:50:33.629Z,103587.90
2023-02-08T08:53:00.652Z,103588.17
2023-02-08T08:55:27.873Z,103588.88
2023-02-08T08:57:54.836Z,103589.95
2023-02-08T09:00:22.456Z,103583.77
2023-02-08T09:02:49.546Z,103582.98
2023-02-08T09:05:16.398Z,103585.98
2023-02-08T09:07:43.498Z,103586.98
2023-02-08T09:10:15.522Z,103586.30
2023-02-08T09:12:42.766Z,103581.34
2023-02-08T09:15:11.203Z,103583.02
2023-02-08T09:17:39.391Z,103578.25
2023-02-08T09:20:06.755Z,103578.39
2023-02-08T09:22:33.707Z,103574.98
2023-02-08T09:25:01.594Z,103572.08
2023-02-08T09:27:29.316Z,103568.24
2023-02-08T09:29:56.660Z,103560.40
2023-02-08T09:32:23.576Z,103560.25
2023-02-08T09:34:51.253Z,103559.13
2023-02-08T09:37:19.066Z,103556.33
2023-02-08T09:39:46.115Z,103554.81
2023-02-08T09:42:20.916Z,103555.13
2023-02-08T09:45:21.728Z,103548.98
2023-02-08T09:48:00.160Z,103542.16
2023-02-08T09:50:42.015Z,103542.27
2023-02-08T09:53:17.666Z,103538.13
2023-02-08T09:55:46.358Z,103536.31
2023-02-08T09:58:17.674Z,103536.85
2023-02-08T10:00:46.993Z,103535.13
2023-02-08T10:03:42.020Z,103524.98
2023-02-08T10:06:11.328Z,103517.75
2023-02-08T10:08:38.127Z,103519.27
2023-02-08T10:11:38.418Z,103519.59
2023-02-08T10:14:08.687Z,103514.59
2023-02-08T10:16:47.100Z,103512.30
2023-02-08T10:19:46.464Z,103508.52
2023-02-08T10:22:32.727Z,103508.84
2023-02-08T10:25:22.283Z,103507.98
2023-02-08T10:28:10.162Z,103507.44
2023-02-08T10:30:42.562Z,103511.35
2023-02-08T10:33:31.867Z,103506.35
2023-02-08T10:35:58.819Z,103502.67
2023-02-08T10:38:45.456Z,103503.63
2023-02-08T10:41:29.363Z,103508.16
2023-02-08T10:44:18.052Z,103511.70
2023-02-08T10:46:52.340Z,103512.50
2023-02-08T10:49:29.080Z,103512.66
2023-02-08T10:51:55.977Z,103514.29
2023-02-08T10:54:22.896Z,103514.21
2023-02-08T10:56:57.995Z,103509.92
2023-02-08T10:59:35.360Z,103516.50
2023-02-08T11:02:02.176Z,103513.84
2023-02-08T11:04:29.237Z,103509.55
2023-02-08T11:06:58.019Z,103510.02
2023-02-08T11:09:28.936Z,103512.69
2023-02-08T11:11:57.117Z,103512.39
2023-02-08T11:14:45.962Z,103510.80
2023-02-08T11:17:26.172Z,103510.54
2023-02-08T11:19:53.155Z,103503.48
2023-02-08T11:22:21.816Z,103508.05
2023-02-08T11:25:05.117Z,103506.30
2023-02-08T11:27:34.288Z,103504.44
2023-02-08T11:30:15.011Z,103504.09
2023-02-08T11:32:43.636Z,103506.54
2023-02-08T11:35:22.132Z,103509.22
2023-02-08T11:37:52.958Z,103508.48
2023-02-08T11:40:42.496Z,103511.80
2023-02-08T11:43:33.526Z,103517.48
2023-02-08T11:46:01.717Z,103518.31
2023-02-08T11:48:55.481Z,103519.23
2023-02-08T11:51:29.597Z,103518.27
2023-02-08T11:53:59.970Z,103516.48
2023-02-08T11:56:31.432Z,103514.75
2023-02-08T11:59:15.746Z,103518.10
2023-02-08T12:01:43.182Z,103521.59
2023-02-08T12:04:12.275Z,103519.64
2023-02-08T12:07:14.899Z,103519.35
2023-02-08T12:09:56.982Z,103516.23
2023-02-08T12:12:46.767Z,103515.90
2023-02-08T12:15:16.400Z,103514.00
2023-02-08T12:18:16.731Z,103509.96
2023-02-08T12:20:45.094Z,103508.05
2023-02-08T12:23:28.229Z,103510.44
2023-02-08T12:26:07.469Z,103509.30
2023-02-08T12:28:52.352Z,103506.40
2023-02-08T12:31:24.304Z,103509.79
2023-02-08T12:34:20.831Z,103507.38
2023-02-08T12:37:15.096Z,103504.23
2023-02-08T12:40:06.254Z,103497.55
2023-02-08T12:43:08.309Z,103501.24
2023-02-08T12:45:53.330Z,103499.70
2023-02-08T12:48:49.332Z,103501.48
2023-02-08T12:51:30.072Z,103503.83
2023-02-08T12:53:59.244Z,103507.85
2023-02-08T12:56:31.256Z,103506.29
2023-02-08T12:59:11.780Z,103503.36
2023-02-08T13:01:43.806Z,103502.81
2023-02-08T13:04:15.189Z,103502.13
2023-02-08T13:06:51.468Z,103498.89
2023-02-08T13:09:35.400Z,103497.48
2023-02-08T13:12:12.270Z,103499.02
2023-02-08T13:14:42.358Z,103497.94
2023-02-08T13:17:17.910Z,103495.42
2023-02-08T13:19:59.773Z,103497.27
2023-02-08T13:22:30.333Z,103491.48
2023-02-08T13:25:06.968Z,103492.86
2023-02-08T13:27:34.847Z,103489.17
2023-02-08T13:30:01.976Z,103488.66
2023-02-08T13:32:36.250Z,103485.83
2023-02-08T13:35:11.443Z,103484.80
2023-02-08T13:37:40.090Z,103478.70
2023-02-08T13:40:10.251Z,103477.46
2023-02-08T13:42:42.764Z,103477.84
2023-02-08T13:45:10.628Z,103475.54
2023-02-08T13:47:48.051Z,103475.46
2023-02-08T13:50:29.122Z,103472.20
2023-02-08T13:52:56.666Z,103466.55
2023-02-08T13:55:35.520Z,103465.21
2023-02-08T13:58:14.900Z,103467.61
2023-02-08T14:00:56.835Z,103466.38
2023-02-08T14:03:28.060Z,103461.92
2023-02-08T14:05:58.125Z,103459.67
2023-02-08T14:08:43.798Z,103462.20
2023-02-08T14:11:34.552Z,103462.70
2023-02-08T14:14:04.419Z,103464.09
2023-02-08T14:16:32.288Z,103462.93
2023-02-08T14:19:25.652Z,103464.65
2023-02-08T14:22:00.506Z,103463.01
2023-02-08T14:24:34.770Z,103466.96
2023-02-08T14:27:21.569Z,103467.05
2023-02-08T14:30:20.694Z,103467.31
2023-02-08T14:32:51.052Z,103466.46
2023-02-08T14:35:20.264Z,103467.16
2023-02-08T14:37:47.721Z,103470.15
2023-02-08T14:40:25.021Z,103474.23
2023-02-08T14:42:52.317Z,103478.07
2023-02-08T14:45:33.766Z,103474.12
2023-02-08T14:48:19.780Z,103472.83
2023-02-08T14:51:11.126Z,103471.95
2023-02-08T14:53:41.240Z,103476.14
2023-02-08T14:56:22.465Z,103476.45
2023-02-08T14:58:52.929Z,103477.67
2023-02-08T15:01:22.248Z,103475.33
2023-02-08T15:03:50.226Z,103473.15
2023-02-08T15:06:20.212Z,103474.49
2023-02-08T15:08:51.685Z,103485.29
2023-02-08T15:11:26.820Z,103483.77
2023-02-08T15:13:54.691Z,103483.73
2023-02-08T15:16:22.075Z,103481.63
2023-02-08T15:18:50.066Z,103483.46
2023-02-08T15:21:23.145Z,103485.71
2023-02-08T15:24:18.856Z,103486.59
2023-02-08T15:26:53.220Z,103488.14
2023-02-08T15:29:26.122Z,103490.91
2023-02-08T15:31:57.132Z,103490.09
2023-02-08T15:34:25.041Z,103491.73
2023-02-08T15:36:55.775Z,103494.35
2023-02-08T15:39:35.041Z,103494.90
2023-02-08T15:42:01.823Z,103493.85
2023-02-08T15:44:30.626Z,103495.40
2023-02-08T15:47:02.588Z,103487.96
2023-02-08T15:49:31.237Z,103492.38
2023-02-08T15:51:58.397Z,103491.70
2023-02-08T15:54:25.506Z,103492.05
2023-02-08T15:56:59.432Z,103491.23
2023-02-08T15:59:32.366Z,103491.64
2023-02-08T16:02:05.344Z,103494.98
2023-02-08T16:04:40.825Z,103497.66
2023-02-08T16:07:22.336Z,103502.77
2023-02-08T16:09:49.197Z,103503.13
2023-02-08T16:12:20.922Z,103504.64
2023-02-08T16:14:52.804Z,103500.39
2023-02-08T16:17:43.171Z,103498.95
2023-02-08T16:20:33.949Z,103499.17
2023-02-08T16:23:03.356Z,103501.46
2023-02-08T16:25:34.907Z,103506.72
2023-02-08T16:28:05.567Z,103501.73
2023-02-08T16:30:34.041Z,103501.44
2023-02-08T16:33:07.703Z,103500.46
2023-02-08T16:35:37.194Z,103507.56
2023-02-08T16:38:05.728Z,103504.98
2023-02-08T16:40:52.985Z,103505.59
2023-02-08T16:43:35.430Z,103506.10
2023-02-08T16:46:11.173Z,103497.82
2023-02-08T16:48:42.232Z,103496.52
2023-02-08T16:51:16.198Z,103497.59
2023-02-08T16:53:43.647Z,103501.73
2023-02-08T16:56:10.717Z,103502.55
2023-02-08T16:58:37.606Z,103498.95
2023-02-08T17:01:04.735Z,103493.94
2023-02-08T17:03:32.735Z,103495.46
2023-02-08T17:06:11.001Z,103498.69
2023-02-08T17:08:38.842Z,103501.62
2023-02-08T17:11:05.742Z,103497.33
2023-02-08T17:13:32.571Z,103499.14
2023-02-08T17:15:59.712Z,103496.71
2023-02-08T17:18:26.661Z,103494.23
2023-02-08T17:20:58.993Z,103493.46
2023-02-08T17:23:26.410Z,103490.17
2023-02-08T17:25:53.226Z,103490.05
2023-02-08T17:28:20.118Z,103490.73
2023-02-08T17:30:47.671Z,103492.40
2023-02-08T17:33:17.576Z,103495.91
2023-02-08T17:35:48.050Z,103494.63
2023-02-08T17:38:15.201Z,103493.73
2023-02-08T17:40:42.561Z,103497.52
2023-02-08T17:43:10.169Z,103496.62
2023-02-08T17:45:41.599Z,103494.90
2023-02-08T17:48:08.630Z,103493.24
2023-02-08T17:50:35.743Z,103493.27
2023-02-08T17:53:03.532Z,103492.09
2023-02-08T17:55:30.393Z,103486.48
2023-02-08T17:57:57.505Z,103485.99
2023-02-08T18:00:25.286Z,103478.80
2023-02-08T18:02:53.767Z,103478.05
2023-02-08T18:05:25.149Z,103471.30
2023-02-08T18:07:53.817Z,103472.15
2023-02-08T18:10:21.929Z,103472.89
2023-02-08T18:12:49.660Z,103474.70
2023-02-08T18:15:19.532Z,103477.90
2023-02-08T18:17:47.673Z,103474.40
2023-02-08T18:20:14.708Z,103477.57
2023-02-08T18:22:42.907Z,103475.61
2023-02-08T18:25:10.319Z,103475.09
2023-02-08T18:27:37.371Z,103468.36
2023-02-08T18:30:04.826Z,103471.16
2023-02-08T18:32:31.991Z,103470.48
2023-02-08T18:35:03.211Z,103466.78
2023-02-08T18:37:31.678Z,103465.42
2023-02-08T18:39:59.368Z,103461.32
2023-02-08T18:42:26.370Z,103461.51
2023-02-08T18:44:53.409Z,103463.41
2023-02-08T18:47:20.288Z,103460.26
2023-02-08T18:49:47.380Z,103458.34
2023-02-08T18:52:16.801Z,103461.02
2023-02-08T18:54:44.067Z,103457.98
2023-02-08T18:57:10.915Z,103462.39
2023-02-08T18:59:38.583Z,103460.94
2023-02-08T19:02:06.658Z,103462.58
2023-02-08T19:04:37.734Z,103458.21
2023-02-08T19:07:06.804Z,103462.02
2023-02-08T19:09:37.660Z,103467.45
2023-02-08T19:12:05.447Z,103462.27
2023-02-08T19:14:33.194Z,103459.49
2023-02-08T19:17:00.381Z,103468.38
2023-02-08T19:19:27.517Z,103464.35
2023-02-08T19:21:54.642Z,103464.09
2023-02-08T19:24:21.652Z,103459.52
2023-02-08T19:26:48.485Z,103456.36
2023-02-08T19:29:17.487Z,103462.48
2023-02-08T19:31:45.156Z,103459.56
2023-02-08T19:34:12.419Z,103459.42
2023-02-08T19:36:44.960Z,103454.10
2023-02-08T19:39:14.854Z,103453.02
2023-02-08T19:41:42.611Z,103452.89
2023-02-08T19:44:11.934Z,103454.77
2023-02-08T19:46:39.330Z,103457.69
2023-02-08T19:49:06.469Z,103459.66
2023-02-08T19:51:36.581Z,103458.26
2023-02-08T19:54:06.773Z,103460.40
2023-02-08T19:56:35.061Z,103467.00
2023-02-08T19:59:05.896Z,103475.92
2023-02-08T20:01:34.160Z,103476.16
2023-02-08T20:04:01.218Z,103479.65
2023-02-08T20:06:30.330Z,103470.64
2023-02-08T20:09:00.361Z,103466.27
2023-02-08T20:11:37.076Z,103455.38
2023-02-08T20:14:06.132Z,103453.39
2023-02-08T20:16:33.723Z,103450.70
2023-02-08T20:19:01.559Z,103450.86
2023-02-08T20:21:28.854Z,103448.77
2023-02-08T20:23:55.810Z,103448.55
2023-02-08T20:26:26.112Z,103444.69
2023-02-08T20:28:55.055Z,103439.80
2023-02-08T20:31:24.772Z,103440.02
2023-02-08T20:33:52.610Z,103433.21
2023-02-08T20:36:26.530Z,103437.63
2023-02-08T20:38:54.760Z,103433.00
2023-02-08T20:41:22.520Z,103432.79
2023-02-08T20:43:50.187Z,103427.94
2023-02-08T20:46:23.608Z,103423.23
2023-02-08T20:48:52.249Z,103417.56
2023-02-08T20:51:20.596Z,103420.66
2023-02-08T20:53:48.015Z,103420.45
2023-02-08T20:56:18.811Z,103418.85
2023-02-08T20:58:45.649Z,103424.84
2023-02-08T21:01:15.614Z,103421.20
2023-02-08T21:03:42.943Z,103423.20
2023-02-08T21:06:14.101Z,103426.04
2023-02-08T21:08:44.138Z,103425.52
2023-02-08T21:11:11.842Z,103427.93
2023-02-08T21:13:38.850Z,103425.98
2023-02-08T21:16:06.880Z,103424.88
2023-02-08T21:18:36.221Z,103421.75
2023-02-08T21:21:04.442Z,103423.04
2023-02-08T21:23:31.818Z,103420.02
2023-02-08T21:25:59.705Z,103416.92
2023-02-08T21:28:26.644Z,103415.66
2023-02-08T21:31:00.923Z,103414.10
2023-02-08T21:33:29.967Z,103413.65
2023-02-08T21:36:00.307Z,103412.88
2023-02-08T21:38:30.023Z,103413.69
2023-02-08T21:40:56.777Z,103412.50
2023-02-08T21:43:23.605Z,103411.89
2023-02-08T21:45:50.692Z,103413.17
2023-02-08T21:48:17.495Z,103413.77
2023-02-08T21:51:03.091Z,103413.77
2023-02-08T21:53:48.903Z,103410.65
2023-02-08T21:56:16.171Z,103405.68
2023-02-08T21:58:43.578Z,103403.17
2023-02-08T22:01:10.538Z,103398.66
2023-02-08T22:03:38.169Z,103397.52
2023-02-08T22:06:05.329Z,103397.14
2023-02-08T22:08:32.146Z,103404.52
2023-02-08T22:11:04.027Z,103406.03
2023-02-08T22:13:32.870Z,103406.98
2023-02-08T22:16:01.916Z,103407.66
2023-02-08T22:18:28.813Z,103409.23
2023-02-08T22:20:55.970Z,103406.73
2023-02-08T22:23:22.763Z,103403.61
2023-02-08T22:25:52.486Z,103399.75
2023-02-08T22:28:19.754Z,103399.56
2023-02-08T22:30:48.549Z,103399.82
2023-02-08T22:33:15.588Z,103395.95
2023-02-08T22:35:42.807Z,103392.08
2023-02-08T22:38:10.001Z,103384.71
2023-02-08T22:40:36.947Z,103384.52
2023-02-08T22:43:03.940Z,103382.54
2023-02-08T22:45:31.245Z,103383.27
2023-02-08T22:47:58.010Z,103382.99
2023-02-08T22:50:24.843Z,103378.98
2023-02-08T22:52:51.565Z,103378.63
2023-02-08T22:55:18.535Z,103374.77
2023-02-08T22:57:45.419Z,103373.66
2023-02-08T23:00:13.963Z,103374.66
2023-02-08T23:02:41.883Z,103370.20
2023-02-08T23:05:08.736Z,103368.83
2023-02-08T23:07:36.854Z,103362.20
2023-02-08T23:10:05.028Z,103361.52
2023-02-08T23:12:32.351Z,103357.57
2023-02-08T23:14:59.250Z,103355.40
2023-02-08T23:17:26.218Z,103348.30
2023-02-08T23:19:53.040Z,103346.80
2023-02-08T23:22:19.957Z,103344.73
2023-02-08T23:24:46.794Z,103341.89
2023-02-08T23:27:13.706Z,103341.25
2023-02-08T23:29:40.720Z,103339.04
2023-02-08T23:32:07.734Z,103334.02
2023-02-08T23:34:34.834Z,103336.02
2023-02-08T23:37:01.761Z,103337.80
2023-02-08T23:39:28.679Z,103335.85
2023-02-08T23:41:55.927Z,103331.83
2023-02-08T23:44:23.060Z,103332.77
2023-02-08T23:46:50.157Z,103333.38
2023-02-08T23:49:16.986Z,103334.17
2023-02-08T23:51:43.845Z,103331.82
2023-02-08T23:54:11.144Z,103326.20
2023-02-08T23:56:38.258Z,103328.66
2023-02-08T23:59:07.630Z,103324.02
